Butler, Illinois
Current Conditions -  °F | °C
As of 4:35 PM on Friday 28 Nov 2014 (Local Time) from K3LF Reporting Station
Clear Clear  
Wind Chill: 30°   Ceiling: Unl
Heat Index: 39°   Visibility: 10mi
Dew Point: 32°   Wind: 16mph
Humidity: 75%   Direction: 160°SSE
Pressure: 29.96"   Gusts: NA
Location:  39.2°N, 89.53°W
Report Text: K3LF 282235Z AUTO 16014KT 10SM CLR 04/00 A2996 RMK AO2 T00400000
Loading
Personal Weather Stations






























Interactive Weather Map New forecast layout! Learn more

10-Day Weather Forecast

Advertisements
Track Severe Weather on mobile